First Ferry Vi — VRS4293 — position and weather

sailwx.info

Track history (hours):
 
Tides and Currents Weather Stations Pressure Air Temp Water Temp Dewpoint Dewpoint Depression Visibility Wind Speed Wind Dir Waves Ship Positions

First Ferry Vi

Last reported at 2016-Dec-10 15:33 UTC. Time now 2016-Dec-10 18:38 UTC.
Position N 22°17' E 114°10'.

Length 36 m; draft 1.8 m.

Type: Tug. MMSI: 477995028.

Date/timePositionNaut miles runAvg speedWind from/ knotsBaromVisibWave heightAir tempDewpointWater temp
2016-Dec-10 15:33N 22°17' E 114°10'2 1.1
2016-Dec-10 14:09N 22°18' E 114°08'2 2.2
2016-Dec-10 13:23N 22°17' E 114°10'0 0.1
2016-Dec-10 11:23N 22°17' E 114°10'2 1.4
2016-Dec-10 10:11N 22°18' E 114°08'2 3.4
2016-Dec-10 09:33N 22°17' E 114°10'0 0.2
2016-Dec-10 07:21N 22°17' E 114°10'0 0.0
2016-Dec-10 05:33N 22°17' E 114°10'1 0.3
2016-Dec-10 03:33N 22°17' E 114°10'0 0.2
2016-Dec-10 01:33N 22°17' E 114°10'1 1.0
2016-Dec-10 00:27N 22°18' E 114°09'0 0.3
2016-Dec-09 23:04N 22°18' E 114°09'0 0.0
2016-Dec-09 15:33N 22°17' E 114°10'1 0.9
2016-Dec-09 14:09N 22°18' E 114°08'1 0.8
2016-Dec-09 12:31N 22°17' E 114°10'2 1.4
2016-Dec-09 11:24N 22°18' E 114°08'0 0.1
2016-Dec-09 10:10N 22°18' E 114°08'0 0.0
2016-Dec-08 10:10N 22°18' E 114°08'1 0.1
2016-Dec-08 00:33N 22°19' E 114°09'2 1.3
2016-Dec-07 23:09N 22°18' E 114°08'0 0.0
2016-Dec-07 16:17N 22°18' E 114°08'1 0.3
2016-Dec-07 11:07N 22°17' E 114°10'1 1.5
2016-Dec-07 10:09N 22°18' E 114°08'2 0.5
2016-Dec-07 05:29N 22°17' E 114°11'1 0.4
2016-Dec-07 03:21N 22°17' E 114°10'0 0.2
2016-Dec-07 01:34N 22°17' E 114°10'2 1.6
2016-Dec-07 00:32N 22°19' E 114°09'2 1.1
2016-Dec-06 23:08N 22°18' E 114°08'2 0.2
2016-Dec-06 15:33N 22°17' E 114°10'2 1.3
2016-Dec-06 14:09N 22°18' E 114°08'2 2.6
2016-Dec-06 13:27N 22°17' E 114°10'0 0.2
2016-Dec-06 12:33N 22°17' E 114°10'1 1.1
2016-Dec-06 11:23N 22°18' E 114°08'1 0.1
2016-Dec-05 23:33N 22°18' E 114°09'1 0.2
2016-Dec-05 15:33N 22°17' E 114°10'1 1.0
2016-Dec-05 14:09N 22°18' E 114°08'1 0.8
2016-Dec-05 12:31N 22°17' E 114°10'2 1.9
2016-Dec-05 11:25N 22°18' E 114°07'1 0.5
2016-Dec-05 10:10N 22°18' E 114°08'2 0.5
2016-Dec-05 05:31N 22°17' E 114°10'1 0.4
2016-Dec-05 03:19N 22°17' E 114°10'0 0.2
2016-Dec-05 01:33N 22°17' E 114°10'2 1.6
2016-Dec-05 00:33N 22°19' E 114°09'2 1.6
2016-Dec-04 23:10N 22°17' E 114°07'2 0.3
2016-Dec-04 15:23N 22°17' E 114°10'0 0.0
2016-Dec-04 13:32N 22°17' E 114°10'0 0.0
2016-Dec-04 11:14N 22°17' E 114°10'0 0.0
2016-Dec-04 09:33N 22°17' E 114°10'0 0.0
2016-Dec-04 07:30N 22°17' E 114°10'1 1.0
2016-Dec-04 06:17N 22°18' E 114°08'1 0.5
2016-Dec-04 04:06N 22°17' E 114°09'0 0.1
2016-Dec-03 23:33N 22°18' E 114°09'1 0.1
2016-Dec-03 16:33N 22°17' E 114°10'2 1.2
2016-Dec-03 15:14N 22°18' E 114°08'2 3.1
2016-Dec-03 14:33N 22°17' E 114°10'3 3.0
2016-Dec-03 13:32N 22°17' E 114°07'0 0.4
2016-Dec-03 12:27N 22°18' E 114°07'2 1.4
2016-Dec-03 11:05N 22°18' E 114°09'1 0.4
2016-Dec-03 07:21N 22°18' E 114°08'0 0.1
2016-Dec-03 05:19N 22°18' E 114°08'0 0.3
2016-Dec-03 04:33N 22°18' E 114°08'1 0.4
2016-Dec-03 01:14N 22°19' E 114°09'2 1.0
2016-Dec-02 23:29N 22°17' E 114°10'0 0.0
2016-Dec-02 16:33N 22°17' E 114°10'0 0.1
2016-Dec-02 14:30N 22°17' E 114°10'2 1.6
2016-Dec-02 13:29N 22°18' E 114°08'0 0.1
2016-Dec-02 11:10N 22°18' E 114°08'0 0.6
2016-Dec-02 10:33N 22°18' E 114°08'0 0.3
2016-Dec-02 09:22N 22°18' E 114°08'0 0.1
2016-Dec-02 07:21N 22°18' E 114°08'3 0.4
2016-Dec-02 01:10N 22°17' E 114°11'1 0.6
2016-Dec-01 23:29N 22°17' E 114°10'0 0.0
2016-Dec-01 16:33N 22°17' E 114°10'0 0.1
2016-Dec-01 14:33N 22°17' E 114°10'2 1.6
2016-Dec-01 13:30N 22°18' E 114°08'0 0.4
2016-Dec-01 12:28N 22°18' E 114°08'1 0.9
2016-Dec-01 11:04N 22°17' E 114°10'2 1.0
2016-Dec-01 09:31N 22°18' E 114°08'1 0.1
2016-Dec-01 01:09N 22°18' E 114°09'1 0.1
2016-Nov-30 16:33N 22°18' E 114°09'  
Track history (hours):
 
Tides and Currents Weather Stations Pressure Air Temp Water Temp Dewpoint Dewpoint Depression Visibility Wind Speed Wind Dir Waves Ship Positions

First Ferry Vi

Last reported at 2016-Dec-10 15:33 UTC. Time now 2016-Dec-10 18:38 UTC.
Position N 22°17' E 114°10'.

Length 36 m; draft 1.8 m.

Type: Tug. MMSI: 477995028.

Date/timePositionNaut miles runAvg speedWind from/ knotsBaromVisibWave heightAir tempDewpointWater temp
2016-Dec-10 15:33N 22°17' E 114°10'2 1.1
2016-Dec-10 14:09N 22°18' E 114°08'2 2.2
2016-Dec-10 13:23N 22°17' E 114°10'0 0.1
2016-Dec-10 11:23N 22°17' E 114°10'2 1.4
2016-Dec-10 10:11N 22°18' E 114°08'2 3.4
2016-Dec-10 09:33N 22°17' E 114°10'0 0.2
2016-Dec-10 07:21N 22°17' E 114°10'0 0.0
2016-Dec-10 05:33N 22°17' E 114°10'1 0.3
2016-Dec-10 03:33N 22°17' E 114°10'0 0.2
2016-Dec-10 01:33N 22°17' E 114°10'1 1.0
2016-Dec-10 00:27N 22°18' E 114°09'0 0.3
2016-Dec-09 23:04N 22°18' E 114°09'0 0.0
2016-Dec-09 15:33N 22°17' E 114°10'1 0.9
2016-Dec-09 14:09N 22°18' E 114°08'1 0.8
2016-Dec-09 12:31N 22°17' E 114°10'2 1.4
2016-Dec-09 11:24N 22°18' E 114°08'0 0.1
2016-Dec-09 10:10N 22°18' E 114°08'0 0.0
2016-Dec-08 10:10N 22°18' E 114°08'1 0.1
2016-Dec-08 00:33N 22°19' E 114°09'2 1.3
2016-Dec-07 23:09N 22°18' E 114°08'0 0.0
2016-Dec-07 16:17N 22°18' E 114°08'1 0.3
2016-Dec-07 11:07N 22°17' E 114°10'1 1.5
2016-Dec-07 10:09N 22°18' E 114°08'2 0.5
2016-Dec-07 05:29N 22°17' E 114°11'1 0.4
2016-Dec-07 03:21N 22°17' E 114°10'0 0.2
2016-Dec-07 01:34N 22°17' E 114°10'2 1.6
2016-Dec-07 00:32N 22°19' E 114°09'2 1.1
2016-Dec-06 23:08N 22°18' E 114°08'2 0.2
2016-Dec-06 15:33N 22°17' E 114°10'2 1.3
2016-Dec-06 14:09N 22°18' E 114°08'2 2.6
2016-Dec-06 13:27N 22°17' E 114°10'0 0.2
2016-Dec-06 12:33N 22°17' E 114°10'1 1.1
2016-Dec-06 11:23N 22°18' E 114°08'1 0.1
2016-Dec-05 23:33N 22°18' E 114°09'1 0.2
2016-Dec-05 15:33N 22°17' E 114°10'1 1.0
2016-Dec-05 14:09N 22°18' E 114°08'1 0.8
2016-Dec-05 12:31N 22°17' E 114°10'2 1.9
2016-Dec-05 11:25N 22°18' E 114°07'1 0.5
2016-Dec-05 10:10N 22°18' E 114°08'2 0.5
2016-Dec-05 05:31N 22°17' E 114°10'1 0.4
2016-Dec-05 03:19N 22°17' E 114°10'0 0.2
2016-Dec-05 01:33N 22°17' E 114°10'2 1.6
2016-Dec-05 00:33N 22°19' E 114°09'2 1.6
2016-Dec-04 23:10N 22°17' E 114°07'2 0.3
2016-Dec-04 15:23N 22°17' E 114°10'0 0.0
2016-Dec-04 13:32N 22°17' E 114°10'0 0.0
2016-Dec-04 11:14N 22°17' E 114°10'0 0.0
2016-Dec-04 09:33N 22°17' E 114°10'0 0.0
2016-Dec-04 07:30N 22°17' E 114°10'1 1.0
2016-Dec-04 06:17N 22°18' E 114°08'1 0.5
2016-Dec-04 04:06N 22°17' E 114°09'0 0.1
2016-Dec-03 23:33N 22°18' E 114°09'1 0.1
2016-Dec-03 16:33N 22°17' E 114°10'2 1.2
2016-Dec-03 15:14N 22°18' E 114°08'2 3.1
2016-Dec-03 14:33N 22°17' E 114°10'3 3.0
2016-Dec-03 13:32N 22°17' E 114°07'0 0.4
2016-Dec-03 12:27N 22°18' E 114°07'2 1.4
2016-Dec-03 11:05N 22°18' E 114°09'1 0.4
2016-Dec-03 07:21N 22°18' E 114°08'0 0.1
2016-Dec-03 05:19N 22°18' E 114°08'0 0.3
2016-Dec-03 04:33N 22°18' E 114°08'1 0.4
2016-Dec-03 01:14N 22°19' E 114°09'2 1.0
2016-Dec-02 23:29N 22°17' E 114°10'0 0.0
2016-Dec-02 16:33N 22°17' E 114°10'0 0.1
2016-Dec-02 14:30N 22°17' E 114°10'2 1.6
2016-Dec-02 13:29N 22°18' E 114°08'0 0.1
2016-Dec-02 11:10N 22°18' E 114°08'0 0.6
2016-Dec-02 10:33N 22°18' E 114°08'0 0.3
2016-Dec-02 09:22N 22°18' E 114°08'0 0.1
2016-Dec-02 07:21N 22°18' E 114°08'3 0.4
2016-Dec-02 01:10N 22°17' E 114°11'1 0.6
2016-Dec-01 23:29N 22°17' E 114°10'0 0.0
2016-Dec-01 16:33N 22°17' E 114°10'0 0.1
2016-Dec-01 14:33N 22°17' E 114°10'2 1.6
2016-Dec-01 13:30N 22°18' E 114°08'0 0.4
2016-Dec-01 12:28N 22°18' E 114°08'1 0.9
2016-Dec-01 11:04N 22°17' E 114°10'2 1.0
2016-Dec-01 09:31N 22°18' E 114°08'1 0.1
2016-Dec-01 01:09N 22°18' E 114°09'1 0.1
2016-Nov-30 16:33N 22°18' E 114°09'  

Dump ship's entire track history